Red Owl, South Dakota
Current Conditions -  °F | °C
As of 11:33 PM on Tuesday 25 Nov 2014 (Local Time) from KRCA Reporting Station
Overcast Overcast  
Wind Chill: 13°   Ceiling: 1600
Heat Index: 28°   Visibility: 10mi
Dew Point: 23°   Wind: 29mph
Humidity: 80%   Direction: 360°N
Pressure: 30.06"   Gusts: 40mph
Location:  44.7°N, 102.55°W
Report Text: KRCA 260633Z 36025G35KT 10SM OVC016 M02/M05 A3006 RMK AO2A $
Loading
Personal Weather Stations






























Interactive Weather Map New forecast layout! Learn more

10-Day Weather Forecast

Advertisements
Track Severe Weather on mobile